createdAt,value
2018-07-30T00:02:22.583Z,101435.92
2018-07-30T00:04:51.378Z,101440.59
2018-07-30T00:07:20.227Z,101443.44
2018-07-30T00:09:49.102Z,101445.66
2018-07-30T00:12:17.955Z,101441.66
2018-07-30T00:14:46.778Z,101439.80
2018-07-30T00:17:15.627Z,101434.59
2018-07-30T00:19:44.466Z,101431.81
2018-07-30T00:22:13.376Z,101421.87
2018-07-30T00:24:41.977Z,101430.25
2018-07-30T00:27:10.859Z,101433.04
2018-07-30T00:29:39.669Z,101426.74
2018-07-30T00:32:08.451Z,101428.39
2018-07-30T00:34:37.341Z,101432.17
2018-07-30T00:37:06.195Z,101426.68
2018-07-30T00:39:35.097Z,101431.65
2018-07-30T00:42:04.021Z,101425.84
2018-07-30T00:44:32.945Z,101434.63
2018-07-30T00:47:01.591Z,101431.86
2018-07-30T00:49:30.835Z,101432.58
2018-07-30T00:51:59.590Z,101433.31
2018-07-30T00:54:28.430Z,101427.08
2018-07-30T00:56:57.326Z,101428.47
2018-07-30T00:59:26.443Z,101430.16
2018-07-30T01:01:55.078Z,101434.58
2018-07-30T01:04:26.259Z,101430.42
2018-07-30T01:06:55.059Z,101433.49
2018-07-30T01:09:23.826Z,101438.74
2018-07-30T01:11:57.254Z,101438.64
2018-07-30T01:14:26.664Z,101440.67
2018-07-30T01:16:55.534Z,101442.55
2018-07-30T01:19:24.344Z,101434.50
2018-07-30T01:21:53.571Z,101445.84
2018-07-30T01:24:22.370Z,101445.52
2018-07-30T01:26:51.306Z,101438.66
2018-07-30T01:29:20.084Z,101436.08
2018-07-30T01:31:48.961Z,101443.79
2018-07-30T01:34:17.823Z,101442.59
2018-07-30T01:36:46.734Z,101439.25
2018-07-30T01:39:15.515Z,101444.97
2018-07-30T01:41:44.380Z,101440.95
2018-07-30T01:44:13.183Z,101442.98
2018-07-30T01:46:42.088Z,101450.63
2018-07-30T01:49:10.877Z,101451.33
2018-07-30T01:51:39.732Z,101453.31
2018-07-30T01:54:08.491Z,101452.34
2018-07-30T01:56:37.380Z,101453.45
2018-07-30T01:59:06.739Z,101451.88
2018-07-30T02:01:35.592Z,101462.72
2018-07-30T02:04:04.531Z,101453.53
2018-07-30T02:06:33.336Z,101460.75
2018-07-30T02:09:02.315Z,101466.72
2018-07-30T02:11:31.155Z,101469.77
2018-07-30T02:14:00.011Z,101491.30
2018-07-30T02:16:28.862Z,101487.61
2018-07-30T02:18:57.703Z,101483.66
2018-07-30T02:21:26.565Z,101493.30
2018-07-30T02:23:55.421Z,101480.78
2018-07-30T02:26:24.069Z,101483.97
2018-07-30T02:28:52.935Z,101475.25
2018-07-30T02:31:21.729Z,101481.66
2018-07-30T02:33:50.911Z,101475.20
2018-07-30T02:36:19.816Z,101476.19
2018-07-30T02:38:48.639Z,101476.78
2018-07-30T02:41:17.532Z,101475.55
2018-07-30T02:43:46.344Z,101475.81
2018-07-30T02:46:15.241Z,101479.05
2018-07-30T02:48:44.107Z,101480.95
2018-07-30T02:51:13.073Z,101470.99
2018-07-30T02:53:41.902Z,101476.48
2018-07-30T02:56:10.753Z,101476.19
2018-07-30T02:58:39.580Z,101490.02
2018-07-30T03:01:08.733Z,101496.76
2018-07-30T03:03:37.558Z,101495.11
2018-07-30T03:06:06.428Z,101482.60
2018-07-30T03:08:35.204Z,101495.97
2018-07-30T03:11:04.042Z,101493.66
2018-07-30T03:13:32.886Z,101496.50
2018-07-30T03:16:01.923Z,101492.75
2018-07-30T03:18:30.739Z,101491.72
2018-07-30T03:20:59.530Z,101497.06
2018-07-30T03:23:28.422Z,101497.44
2018-07-30T03:25:57.311Z,101504.37
2018-07-30T03:28:26.185Z,101505.27
2018-07-30T03:30:55.061Z,101506.45
2018-07-30T03:33:23.919Z,101504.67
2018-07-30T03:35:52.783Z,101505.13
2018-07-30T03:38:22.058Z,101505.98
2018-07-30T03:40:50.867Z,101501.66
2018-07-30T03:43:19.724Z,101499.66
2018-07-30T03:45:53.527Z,101497.06
2018-07-30T03:48:22.426Z,101501.03
2018-07-30T03:50:51.320Z,101505.47
2018-07-30T03:53:20.232Z,101496.03
2018-07-30T03:55:49.030Z,101499.13
2018-07-30T03:58:17.874Z,101495.83
2018-07-30T04:00:46.734Z,101496.03
2018-07-30T04:03:15.680Z,101499.24
2018-07-30T04:05:44.480Z,101497.48
2018-07-30T04:08:13.394Z,101494.72
2018-07-30T04:10:42.206Z,101502.09
2018-07-30T04:13:11.079Z,101501.64
2018-07-30T04:15:39.967Z,101509.53
2018-07-30T04:18:08.823Z,101515.81
2018-07-30T04:20:37.983Z,101515.86
2018-07-30T04:23:06.839Z,101524.02
2018-07-30T04:25:35.687Z,101526.38
2018-07-30T04:28:04.901Z,101534.83
2018-07-30T04:30:33.711Z,101532.37
2018-07-30T04:33:02.545Z,101536.97
2018-07-30T04:35:31.388Z,101537.34
2018-07-30T04:38:00.552Z,101540.37
2018-07-30T04:40:29.285Z,101545.61
2018-07-30T04:42:58.087Z,101538.93
2018-07-30T04:45:32.895Z,101543.80
2018-07-30T04:48:01.732Z,101543.52
2018-07-30T04:50:30.890Z,101547.47
2018-07-30T04:52:59.671Z,101549.52
2018-07-30T04:55:28.490Z,101539.64
2018-07-30T04:57:57.271Z,101546.89
2018-07-30T05:00:26.151Z,101548.95
2018-07-30T05:02:55.007Z,101550.34
2018-07-30T05:05:23.852Z,101554.33
2018-07-30T05:07:52.640Z,101553.88
2018-07-30T05:10:21.538Z,101553.45
2018-07-30T05:12:50.344Z,101556.50
2018-07-30T05:15:19.193Z,101567.41
2018-07-30T05:17:48.027Z,101575.94
2018-07-30T05:20:16.843Z,101575.19
2018-07-30T05:22:45.651Z,101571.30
2018-07-30T05:25:14.484Z,101576.59
2018-07-30T05:27:43.396Z,101569.98
2018-07-30T05:30:12.187Z,101580.38
2018-07-30T05:32:41.046Z,101582.49
2018-07-30T05:35:09.819Z,101585.02
2018-07-30T05:37:38.567Z,101584.27
2018-07-30T05:40:07.403Z,101588.31
2018-07-30T05:42:36.264Z,101590.36
2018-07-30T05:45:05.950Z,101593.33
2018-07-30T05:47:34.828Z,101600.69
2018-07-30T05:50:03.884Z,101605.29
2018-07-30T05:52:32.873Z,101601.69
2018-07-30T05:55:01.737Z,101598.98
2018-07-30T05:57:30.564Z,101604.19
2018-07-30T05:59:59.387Z,101604.97
2018-07-30T06:02:28.017Z,101603.63
2018-07-30T06:04:57.015Z,101606.03
2018-07-30T06:07:25.824Z,101606.66
2018-07-30T06:09:54.658Z,101601.50
2018-07-30T06:12:23.464Z,101602.89
2018-07-30T06:14:52.325Z,101601.42
2018-07-30T06:17:21.323Z,101612.75
2018-07-30T06:19:49.922Z,101611.30
2018-07-30T06:22:18.729Z,101623.16
2018-07-30T06:24:47.512Z,101629.14
2018-07-30T06:27:16.699Z,101624.86
2018-07-30T06:29:45.510Z,101629.62
2018-07-30T06:32:14.379Z,101627.27
2018-07-30T06:34:43.147Z,101627.05
2018-07-30T06:37:11.890Z,101629.50
2018-07-30T06:39:40.651Z,101625.33
2018-07-30T06:42:09.511Z,101620.97
2018-07-30T06:44:38.296Z,101627.63
2018-07-30T06:47:07.153Z,101631.52
2018-07-30T06:49:35.944Z,101632.52
2018-07-30T06:52:05.008Z,101629.69
2018-07-30T06:54:33.860Z,101635.94
2018-07-30T06:57:02.708Z,101644.08
2018-07-30T06:59:31.493Z,101649.50
2018-07-30T07:02:00.359Z,101644.80
2018-07-30T07:04:29.177Z,101651.84
2018-07-30T07:06:57.872Z,101647.72
2018-07-30T07:09:26.711Z,101646.70
2018-07-30T07:11:55.605Z,101655.02
2018-07-30T07:14:24.255Z,101650.18
2018-07-30T07:16:53.097Z,101657.13
2018-07-30T07:19:21.967Z,101655.56
2018-07-30T07:21:50.803Z,101651.77
2018-07-30T07:24:19.649Z,101653.27
2018-07-30T07:26:48.873Z,101656.56
2018-07-30T07:29:17.679Z,101661.14
2018-07-30T07:31:46.653Z,101659.34
2018-07-30T07:34:15.510Z,101664.83
2018-07-30T07:36:44.413Z,101658.08
2018-07-30T07:39:13.507Z,101656.94
2018-07-30T07:41:42.304Z,101668.38
2018-07-30T07:44:11.214Z,101661.87
2018-07-30T07:46:39.837Z,101663.83
2018-07-30T07:49:08.783Z,101662.02
2018-07-30T07:51:37.414Z,101661.69
2018-07-30T07:54:06.275Z,101664.91
2018-07-30T07:56:35.015Z,101658.16
2018-07-30T07:59:03.936Z,101659.17
2018-07-30T08:01:32.860Z,101663.06
2018-07-30T08:04:01.756Z,101668.80
2018-07-30T08:06:30.542Z,101668.70
2018-07-30T08:08:59.369Z,101671.03
2018-07-30T08:11:28.296Z,101677.59
2018-07-30T08:13:57.081Z,101674.99
2018-07-30T08:16:25.877Z,101679.45
2018-07-30T08:18:54.616Z,101679.39
2018-07-30T08:21:23.524Z,101677.61
2018-07-30T08:23:52.351Z,101680.66
2018-07-30T08:26:21.037Z,101682.66
2018-07-30T08:28:49.850Z,101685.39
2018-07-30T08:31:18.780Z,101686.46
2018-07-30T08:33:47.642Z,101681.63
2018-07-30T08:36:16.498Z,101687.87
2018-07-30T08:38:45.133Z,101687.28
2018-07-30T08:41:14.033Z,101697.92
2018-07-30T08:43:42.840Z,101699.66
2018-07-30T08:46:11.691Z,101697.89
2018-07-30T08:48:40.562Z,101697.93
2018-07-30T08:51:09.401Z,101696.43
2018-07-30T08:53:38.303Z,101699.42
2018-07-30T08:56:07.149Z,101702.20
2018-07-30T08:58:36.183Z,101707.61
2018-07-30T09:01:04.967Z,101709.39
2018-07-30T09:03:33.804Z,101703.78
2018-07-30T09:06:02.426Z,101703.34
2018-07-30T09:08:31.260Z,101710.30
2018-07-30T09:11:00.124Z,101708.39
2018-07-30T09:13:29.159Z,101712.42
2018-07-30T09:15:58.025Z,101715.39
2018-07-30T09:18:26.848Z,101715.35
2018-07-30T09:20:55.488Z,101711.55
2018-07-30T09:23:24.357Z,101714.22
2018-07-30T09:25:53.148Z,101711.59
2018-07-30T09:28:21.991Z,101713.20
2018-07-30T09:30:50.884Z,101712.12
2018-07-30T09:33:19.764Z,101701.16
2018-07-30T09:35:48.717Z,101711.23
2018-07-30T09:38:17.631Z,101707.55
2018-07-30T09:40:46.523Z,101711.17
2018-07-30T09:43:15.311Z,101714.00
2018-07-30T09:45:50.034Z,101707.89
2018-07-30T09:48:18.881Z,101709.00
2018-07-30T09:50:47.745Z,101709.56
2018-07-30T09:53:16.495Z,101710.03
2018-07-30T09:55:45.368Z,101704.64
2018-07-30T09:58:14.159Z,101705.86
2018-07-30T10:00:48.442Z,101704.53
2018-07-30T10:03:17.275Z,101700.63
2018-07-30T10:05:46.198Z,101704.69
2018-07-30T10:08:14.974Z,101697.87
2018-07-30T10:10:43.701Z,101700.92
2018-07-30T10:13:12.644Z,101700.04
2018-07-30T10:15:41.519Z,101697.45
2018-07-30T10:18:10.362Z,101694.33
2018-07-30T10:20:39.208Z,101690.00
2018-07-30T10:23:07.902Z,101690.39
2018-07-30T10:25:36.784Z,101692.32
2018-07-30T10:28:05.595Z,101699.24
2018-07-30T10:30:34.458Z,101695.81
2018-07-30T10:33:03.349Z,101686.23
2018-07-30T10:35:32.219Z,101692.66
2018-07-30T10:38:01.174Z,101691.41
2018-07-30T10:40:29.972Z,101682.14
2018-07-30T10:42:59.032Z,101685.39
2018-07-30T10:45:33.677Z,101686.32
2018-07-30T10:48:02.478Z,101684.94
2018-07-30T10:50:31.302Z,101679.52
2018-07-30T10:53:00.172Z,101674.39
2018-07-30T10:55:28.999Z,101665.89
2018-07-30T10:57:57.683Z,101672.05
2018-07-30T11:00:26.537Z,101673.73
2018-07-30T11:02:55.427Z,101668.56
2018-07-30T11:05:24.232Z,101667.38
2018-07-30T11:07:53.167Z,101663.89
2018-07-30T11:10:21.920Z,101669.44
2018-07-30T11:12:50.910Z,101662.39
2018-07-30T11:15:19.716Z,101666.86
2018-07-30T11:17:48.641Z,101667.27
2018-07-30T11:20:17.440Z,101670.09
2018-07-30T11:22:46.270Z,101663.50
2018-07-30T11:25:15.169Z,101665.40
2018-07-30T11:27:44.074Z,101675.46
2018-07-30T11:30:12.867Z,101662.53
2018-07-30T11:32:41.663Z,101664.25
2018-07-30T11:35:10.317Z,101660.91
2018-07-30T11:37:39.244Z,101663.12
2018-07-30T11:40:07.917Z,101655.22
2018-07-30T11:42:36.700Z,101658.88
2018-07-30T11:45:05.661Z,101659.73
2018-07-30T11:47:34.484Z,101656.05
2018-07-30T11:50:03.453Z,101652.59
2018-07-30T11:52:32.321Z,101654.67
2018-07-30T11:55:01.109Z,101650.70
2018-07-30T11:57:29.923Z,101645.01
2018-07-30T11:59:58.769Z,101648.27
2018-07-30T12:02:27.663Z,101641.16
2018-07-30T12:04:56.485Z,101643.53
2018-07-30T12:07:25.312Z,101641.72
2018-07-30T12:09:54.214Z,101640.69
2018-07-30T12:12:23.007Z,101643.83
2018-07-30T12:14:51.919Z,101638.99
2018-07-30T12:17:20.781Z,101635.27
2018-07-30T12:19:49.635Z,101641.59
2018-07-30T12:22:18.460Z,101635.54
2018-07-30T12:24:47.295Z,101632.62
2018-07-30T12:27:16.170Z,101633.33
2018-07-30T12:29:45.176Z,101628.61
2018-07-30T12:32:13.991Z,101630.91
2018-07-30T12:34:42.863Z,101628.41
2018-07-30T12:37:11.752Z,101623.46
2018-07-30T12:39:40.795Z,101621.23
2018-07-30T12:42:09.630Z,101620.56
2018-07-30T12:44:38.429Z,101616.13
2018-07-30T12:47:07.271Z,101619.73
2018-07-30T12:49:36.086Z,101628.58
2018-07-30T12:52:04.996Z,101618.98
2018-07-30T12:54:33.787Z,101615.52
2018-07-30T12:57:02.664Z,101619.27
2018-07-30T12:59:31.475Z,101624.70
2018-07-30T13:02:00.336Z,101619.70
2018-07-30T13:04:29.212Z,101614.85
2018-07-30T13:06:58.038Z,101616.57
2018-07-30T13:09:26.715Z,101614.19
2018-07-30T13:11:55.358Z,101615.54
2018-07-30T13:14:24.201Z,101615.36
2018-07-30T13:16:52.981Z,101618.81
2018-07-30T13:19:21.828Z,101608.52
2018-07-30T13:21:50.996Z,101601.17
2018-07-30T13:24:19.789Z,101606.33
2018-07-30T13:26:48.725Z,101599.98
2018-07-30T13:29:17.564Z,101597.97
2018-07-30T13:31:46.386Z,101602.77
2018-07-30T13:34:15.203Z,101601.98
2018-07-30T13:36:44.062Z,101601.39
2018-07-30T13:39:12.948Z,101597.08
2018-07-30T13:41:41.842Z,101590.58
2018-07-30T13:44:10.747Z,101594.59
2018-07-30T13:46:39.556Z,101593.44
2018-07-30T13:49:08.403Z,101588.74
2018-07-30T13:51:37.246Z,101587.06
2018-07-30T13:54:06.199Z,101585.06
2018-07-30T13:56:35.136Z,101571.41
2018-07-30T13:59:04.279Z,101574.56
2018-07-30T14:01:33.140Z,101575.42
2018-07-30T14:04:01.779Z,101576.98
2018-07-30T14:06:30.862Z,101584.24
2018-07-30T14:08:59.551Z,101581.47
2018-07-30T14:11:28.400Z,101574.86
2018-07-30T14:13:57.232Z,101571.44
2018-07-30T14:16:26.131Z,101570.73
2018-07-30T14:18:54.903Z,101571.93
2018-07-30T14:21:23.831Z,101569.62
2018-07-30T14:23:52.783Z,101571.70
2018-07-30T14:26:21.610Z,101564.67
2018-07-30T14:28:50.462Z,101563.98
2018-07-30T14:31:19.315Z,101567.43
2018-07-30T14:33:48.143Z,101559.14
2018-07-30T14:36:16.942Z,101553.69
2018-07-30T14:38:45.833Z,101554.94
2018-07-30T14:41:14.615Z,101553.88
2018-07-30T14:43:44.405Z,101552.77
2018-07-30T14:46:13.278Z,101553.63
2018-07-30T14:48:42.208Z,101549.57
2018-07-30T14:51:11.004Z,101540.58
2018-07-30T14:53:39.938Z,101548.63
2018-07-30T14:56:08.795Z,101541.98
2018-07-30T14:58:37.645Z,101545.98
2018-07-30T15:01:06.637Z,101532.99
2018-07-30T15:03:35.587Z,101538.73
2018-07-30T15:06:04.465Z,101539.27
2018-07-30T15:08:33.388Z,101542.56
2018-07-30T15:11:02.209Z,101533.93
2018-07-30T15:13:31.096Z,101518.58
2018-07-30T15:15:59.879Z,101526.13
2018-07-30T15:18:28.728Z,101527.10
2018-07-30T15:20:57.788Z,101521.58
2018-07-30T15:23:26.694Z,101524.90
2018-07-30T15:25:55.511Z,101525.77
2018-07-30T15:28:24.307Z,101518.71
2018-07-30T15:30:53.218Z,101519.84
2018-07-30T15:33:22.082Z,101515.84
2018-07-30T15:35:50.938Z,101518.27
2018-07-30T15:38:19.671Z,101514.72
2018-07-30T15:40:48.502Z,101510.48
2018-07-30T15:43:17.334Z,101515.88
2018-07-30T15:45:52.235Z,101512.94
2018-07-30T15:48:20.976Z,101511.37
2018-07-30T15:50:49.744Z,101509.75
2018-07-30T15:53:18.574Z,101519.34
2018-07-30T15:55:47.781Z,101516.02
2018-07-30T15:58:16.544Z,101514.11
2018-07-30T16:00:45.411Z,101517.52
2018-07-30T16:03:14.207Z,101510.66
2018-07-30T16:05:43.059Z,101512.52
2018-07-30T16:08:11.955Z,101506.66
2018-07-30T16:10:40.802Z,101508.59
2018-07-30T16:13:09.619Z,101507.67
2018-07-30T16:15:38.498Z,101502.77
2018-07-30T16:18:07.309Z,101503.93
2018-07-30T16:20:36.263Z,101502.12
2018-07-30T16:23:05.200Z,101510.39
2018-07-30T16:25:34.338Z,101507.16
2018-07-30T16:28:03.192Z,101504.74
2018-07-30T16:30:32.584Z,101502.72
2018-07-30T16:33:01.491Z,101515.95
2018-07-30T16:35:30.299Z,101510.72
2018-07-30T16:37:59.228Z,101513.91
2018-07-30T16:40:28.155Z,101507.76
2018-07-30T16:42:57.961Z,101508.80
2018-07-30T16:45:33.464Z,101507.66
2018-07-30T16:48:02.383Z,101505.03
2018-07-30T16:50:31.224Z,101502.45
2018-07-30T16:52:59.844Z,101497.70
2018-07-30T16:55:28.575Z,101495.27
2018-07-30T16:57:57.412Z,101496.76
2018-07-30T17:00:26.499Z,101495.80
2018-07-30T17:02:55.349Z,101496.69
2018-07-30T17:05:24.215Z,101501.66
2018-07-30T17:07:53.123Z,101498.61
2018-07-30T17:10:21.999Z,101505.33
2018-07-30T17:12:50.858Z,101507.52
2018-07-30T17:15:19.710Z,101508.34
2018-07-30T17:17:48.533Z,101507.95
2018-07-30T17:20:18.104Z,101507.77
2018-07-30T17:22:46.924Z,101508.73
2018-07-30T17:25:15.769Z,101508.50
2018-07-30T17:27:44.584Z,101515.38
2018-07-30T17:30:13.464Z,101510.66
2018-07-30T17:32:42.204Z,101509.14
2018-07-30T17:35:11.057Z,101513.29
2018-07-30T17:37:39.788Z,101511.47
2018-07-30T17:40:09.439Z,101519.12
2018-07-30T17:42:38.931Z,101520.19
2018-07-30T17:45:11.510Z,101518.22
2018-07-30T17:47:41.424Z,101522.23
2018-07-30T17:50:10.269Z,101518.84
2018-07-30T17:52:39.345Z,101516.95
2018-07-30T17:55:08.746Z,101524.22
2018-07-30T17:57:37.739Z,101525.59
2018-07-30T18:00:08.680Z,101523.87
2018-07-30T18:02:37.507Z,101524.07
2018-07-30T18:05:06.784Z,101525.70
2018-07-30T18:07:35.676Z,101525.92
2018-07-30T18:10:05.187Z,101522.55
2018-07-30T18:12:33.802Z,101522.94
2018-07-30T18:15:02.687Z,101517.92
2018-07-30T18:17:31.512Z,101521.48
2018-07-30T18:20:00.572Z,101524.79
2018-07-30T18:22:29.397Z,101525.10
2018-07-30T18:24:58.199Z,101526.38
2018-07-30T18:27:27.102Z,101532.92
2018-07-30T18:29:55.929Z,101533.23
2018-07-30T18:32:24.724Z,101528.87
2018-07-30T18:34:53.585Z,101525.95
2018-07-30T18:37:22.391Z,101529.27
2018-07-30T18:39:51.358Z,101532.39
2018-07-30T18:42:20.101Z,101532.41
2018-07-30T18:44:48.941Z,101541.66
2018-07-30T18:47:17.798Z,101537.09
2018-07-30T18:49:46.906Z,101543.22
2018-07-30T18:52:15.647Z,101542.58
2018-07-30T18:54:44.458Z,101541.49
2018-07-30T18:57:13.679Z,101544.61
2018-07-30T18:59:42.515Z,101552.12
2018-07-30T19:02:11.130Z,101549.45
2018-07-30T19:04:40.459Z,101554.14
2018-07-30T19:07:09.212Z,101554.70
2018-07-30T19:09:38.340Z,101553.75
2018-07-30T19:12:07.306Z,101552.66
2018-07-30T19:14:36.170Z,101553.89
2018-07-30T19:17:05.144Z,101558.55
2018-07-30T19:19:33.964Z,101556.17
2018-07-30T19:22:02.815Z,101552.11
2018-07-30T19:24:32.071Z,101548.44
2018-07-30T19:27:01.051Z,101548.84
2018-07-30T19:29:29.815Z,101546.78
2018-07-30T19:31:58.794Z,101550.30
2018-07-30T19:34:27.619Z,101554.03
2018-07-30T19:36:56.471Z,101559.41
2018-07-30T19:39:25.764Z,101558.53
2018-07-30T19:41:54.559Z,101561.31
2018-07-30T19:44:23.463Z,101560.46
2018-07-30T19:46:52.312Z,101562.73
2018-07-30T19:49:21.244Z,101564.88
2018-07-30T19:51:50.272Z,101568.73
2018-07-30T19:54:18.952Z,101566.19
2018-07-30T19:56:47.678Z,101564.91
2018-07-30T19:59:16.547Z,101572.17
2018-07-30T20:01:45.408Z,101566.97
2018-07-30T20:04:14.227Z,101570.39
2018-07-30T20:06:42.996Z,101566.04
2018-07-30T20:09:12.531Z,101564.77
2018-07-30T20:11:41.428Z,101570.95
2018-07-30T20:14:10.348Z,101566.02
2018-07-30T20:16:39.139Z,101571.70
2018-07-30T20:19:07.987Z,101580.38
2018-07-30T20:21:37.025Z,101579.78
2018-07-30T20:24:06.008Z,101579.37
2018-07-30T20:26:34.858Z,101580.38
2018-07-30T20:29:03.827Z,101581.09
2018-07-30T20:31:32.641Z,101586.65
2018-07-30T20:34:01.262Z,101590.78
2018-07-30T20:36:30.163Z,101590.17
2018-07-30T20:38:59.200Z,101589.15
2018-07-30T20:41:28.100Z,101591.91
2018-07-30T20:43:56.950Z,101587.86
2018-07-30T20:46:25.810Z,101590.88
2018-07-30T20:48:54.615Z,101595.98
2018-07-30T20:51:23.494Z,101595.64
2018-07-30T20:53:52.603Z,101598.78
2018-07-30T20:56:21.440Z,101594.05
2018-07-30T20:58:50.230Z,101596.41
2018-07-30T21:01:19.076Z,101594.69
2018-07-30T21:03:47.765Z,101591.02
2018-07-30T21:06:16.603Z,101599.26
2018-07-30T21:08:45.447Z,101600.29
2018-07-30T21:11:14.224Z,101602.85
2018-07-30T21:13:43.284Z,101604.53
2018-07-30T21:16:12.384Z,101610.33
2018-07-30T21:18:41.110Z,101604.04
2018-07-30T21:21:09.977Z,101608.33
2018-07-30T21:23:38.644Z,101605.13
2018-07-30T21:26:07.474Z,101601.80
2018-07-30T21:28:36.362Z,101604.04
2018-07-30T21:31:05.373Z,101606.53
2018-07-30T21:33:34.162Z,101600.95
2018-07-30T21:36:02.985Z,101600.86
2018-07-30T21:38:31.880Z,101603.75
2018-07-30T21:41:00.750Z,101608.33
2018-07-30T21:43:29.739Z,101609.53
2018-07-30T21:45:58.516Z,101604.70
2018-07-30T21:48:27.370Z,101603.44
2018-07-30T21:50:56.002Z,101597.55
2018-07-30T21:53:24.818Z,101598.25
2018-07-30T21:55:53.617Z,101602.03
2018-07-30T21:58:22.466Z,101608.73
2018-07-30T22:00:55.695Z,101602.22
2018-07-30T22:03:25.258Z,101604.13
2018-07-30T22:06:00.235Z,101602.73
2018-07-30T22:08:29.491Z,101605.70
2018-07-30T22:10:58.398Z,101603.61
2018-07-30T22:13:27.276Z,101605.88
2018-07-30T22:15:56.094Z,101606.23
2018-07-30T22:18:25.008Z,101603.97
2018-07-30T22:20:53.866Z,101602.06
2018-07-30T22:23:22.809Z,101602.30
2018-07-30T22:25:51.681Z,101595.41
2018-07-30T22:28:20.550Z,101592.95
2018-07-30T22:30:49.805Z,101596.81
2018-07-30T22:33:18.610Z,101598.12
2018-07-30T22:35:47.257Z,101593.67
2018-07-30T22:38:16.190Z,101599.25
2018-07-30T22:40:45.101Z,101597.16
2018-07-30T22:43:13.967Z,101596.45
2018-07-30T22:45:48.839Z,101590.27
2018-07-30T22:48:17.952Z,101586.95
2018-07-30T22:50:46.785Z,101582.83
2018-07-30T22:53:15.453Z,101589.41
2018-07-30T22:55:44.283Z,101590.34
2018-07-30T22:58:13.298Z,101591.22
2018-07-30T23:00:42.082Z,101590.98
2018-07-30T23:03:10.960Z,101592.05
2018-07-30T23:05:39.850Z,101589.31
2018-07-30T23:08:08.683Z,101588.68
2018-07-30T23:10:37.497Z,101587.48
2018-07-30T23:13:06.341Z,101587.64
2018-07-30T23:15:35.265Z,101585.67
2018-07-30T23:18:04.084Z,101573.30
2018-07-30T23:20:32.899Z,101576.37
2018-07-30T23:23:01.666Z,101575.85
2018-07-30T23:25:30.533Z,101575.08
2018-07-30T23:27:59.425Z,101575.86
2018-07-30T23:30:28.254Z,101571.16
2018-07-30T23:32:57.083Z,101568.13
2018-07-30T23:35:25.874Z,101567.95
2018-07-30T23:37:54.762Z,101558.55
2018-07-30T23:40:23.774Z,101566.55
2018-07-30T23:42:52.626Z,101565.95
2018-07-30T23:45:27.341Z,101556.09
2018-07-30T23:47:56.190Z,101558.91
2018-07-30T23:50:25.025Z,101554.97
2018-07-30T23:52:53.859Z,101559.64
2018-07-30T23:55:22.696Z,101554.58
2018-07-30T23:57:51.511Z,101552.66
